FTW weather

Fort Worth Meacham International Airport
Fort Worth, Texas, United States

Public forecast

Using degrees Fahrenheit for public forecast. Weather courtesy of forecast.io.

METAR (pilot weather report)

Retrieved 2019/05/21 15:53 UTC (48 minutes ago):

KFTW 211553Z 22007KT 10SM OVC100 19/17 A2966 RMK AO2 LTG DSNT N SLP036 T01940167

TAF (pilot weather forecast)

Retrieved 2019/05/21 12:42 UTC (4 hours ago):

TAF KFTW 211139Z 2112/2212 24017KT P6SM -SHRA VCTS BKN025CB TEMPO 2112/2114 3SM SHRA BKN025 FM211500 23015G25KT P6SM FEW300 FM220000 19011KT P6SM SKC